Ana Sayfa
METAR-TAF:

METAR-TAF

Havaalanları :

Nassau, Bahamalar

Enlem: 25-03N, Boylam: 077-28W, yükseklik: 3 m

Güncel hava durumu gözlemi

Rapor saat 02:00 UTC de 51 dakika önce yapıldı.
Rüzgar doğudan 8 kt
Sıcaklık 28°C
Nem 70%
Basınç 1021 hPa
Görüş mesafesi 10 km veya daha fazla
2500 ft yükseklikte az bulutlu

METAR: MYNN 190200Z 10008KT 9999 FEW025 28/22 A3016

Saat: 22:51 (02:51 UTC)

Tahmin

Ayın 19'si saat 00 UTC'den ayın 19'si saat 24 UTC'ye kadar geçerli Tahmin
Rüzgar doğudan 12 kt
Görüş mesafesi 10 km veya daha fazla
2300 ft yükseklikte parçalı bulutlu

TAF: MYNN 1900/1924 10012KT 9999 SCT023

4.000'den fazla havaalanı için hava durumu gözlemleri ve tahminleri (METAR ve TAF raporları).

Kullanılabilir istasyonlar harita üzerinde sarı ve kırmızı noktalarla gösterilir.

İstasyonun adını görmek için fareyi noktanın üzerinde gezdirin.

Sonrasında hava gözlem ve tahminlerini görmek için tıklayın.

Haritayı değiştirmek için: yaklaştırmak için siyah artı işaretli yeşil düğmeye ve uzaklaştırmak için de eksi işaretli düğmeye hızla tıklayın; bitişik haritalar için yeşil okları kullanın.


METAR-TAF: